sensor_id;sensor_type;location;lat;lon;timestamp;P1;durP1;ratioP1;P2;durP2;ratioP2
15192;SDS011;7697;51.630;7.484;2022-07-05T00:00:32;2.38;;;1.40;;
15192;SDS011;7697;51.630;7.484;2022-07-05T00:05:34;1.30;;;1.20;;
15192;SDS011;7697;51.630;7.484;2022-07-05T00:10:38;1.98;;;1.10;;
15192;SDS011;7697;51.630;7.484;2022-07-05T00:15:40;1.38;;;1.20;;
15192;SDS011;7697;51.630;7.484;2022-07-05T00:20:42;1.63;;;1.40;;
15192;SDS011;7697;51.630;7.484;2022-07-05T00:25:47;1.42;;;1.20;;
15192;SDS011;7697;51.630;7.484;2022-07-05T00:30:49;1.70;;;1.40;;
15192;SDS011;7697;51.630;7.484;2022-07-05T00:41:49;1.70;;;1.30;;
15192;SDS011;7697;51.630;7.484;2022-07-05T06:02:35;2.20;;;1.90;;
15192;SDS011;7697;51.630;7.484;2022-07-05T10:10:19;1.10;;;1.02;;
15192;SDS011;7697;51.630;7.484;2022-07-05T10:15:24;1.98;;;1.48;;
15192;SDS011;7697;51.630;7.484;2022-07-05T10:20:28;2.22;;;1.42;;
15192;SDS011;7697;51.630;7.484;2022-07-05T10:25:36;1.75;;;1.35;;
15192;SDS011;7697;51.630;7.484;2022-07-05T10:30:38;1.50;;;1.20;;
15192;SDS011;7697;51.630;7.484;2022-07-05T10:35:42;1.73;;;1.20;;
15192;SDS011;7697;51.630;7.484;2022-07-05T10:40:47;1.38;;;1.25;;
15192;SDS011;7697;51.630;7.484;2022-07-05T10:45:53;1.50;;;1.17;;
15192;SDS011;7697;51.630;7.484;2022-07-05T10:50:55;2.33;;;1.20;;
15192;SDS011;7697;51.630;7.484;2022-07-05T10:56:00;2.65;;;1.25;;
15192;SDS011;7697;51.630;7.484;2022-07-05T11:06:45;2.00;;;1.20;;
15192;SDS011;7697;51.630;7.484;2022-07-05T11:12:07;1.30;;;1.10;;
15192;SDS011;7697;51.630;7.484;2022-07-05T11:17:13;2.47;;;1.23;;
15192;SDS011;7697;51.630;7.484;2022-07-05T11:22:25;1.48;;;1.23;;
15192;SDS011;7697;51.630;7.484;2022-07-05T11:27:29;2.65;;;1.20;;
15192;SDS011;7697;51.630;7.484;2022-07-05T11:32:35;1.48;;;1.30;;
15192;SDS011;7697;51.630;7.484;2022-07-05T11:37:56;1.33;;;1.10;;
15192;SDS011;7697;51.630;7.484;2022-07-05T11:42:59;1.60;;;1.20;;
15192;SDS011;7697;51.630;7.484;2022-07-05T11:48:03;1.63;;;1.05;;
15192;SDS011;7697;51.630;7.484;2022-07-05T11:53:05;1.20;;;1.10;;
15192;SDS011;7697;51.630;7.484;2022-07-05T11:58:12;4.13;;;1.30;;
15192;SDS011;7697;51.630;7.484;2022-07-05T12:03:15;1.88;;;1.20;;
15192;SDS011;7697;51.630;7.484;2022-07-05T12:08:20;2.25;;;1.00;;
15192;SDS011;7697;51.630;7.484;2022-07-05T12:13:24;1.25;;;1.05;;
15192;SDS011;7697;51.630;7.484;2022-07-05T12:18:26;3.35;;;1.25;;
15192;SDS011;7697;51.630;7.484;2022-07-05T12:23:28;4.95;;;1.58;;
15192;SDS011;7697;51.630;7.484;2022-07-05T12:28:31;1.20;;;1.10;;
15192;SDS011;7697;51.630;7.484;2022-07-05T12:33:33;1.42;;;1.23;;
15192;SDS011;7697;51.630;7.484;2022-07-05T12:38:35;1.27;;;1.13;;
15192;SDS011;7697;51.630;7.484;2022-07-05T12:43:50;1.73;;;1.20;;
15192;SDS011;7697;51.630;7.484;2022-07-05T12:48:53;1.33;;;1.13;;
15192;SDS011;7697;51.630;7.484;2022-07-05T12:53:55;1.77;;;1.30;;
15192;SDS011;7697;51.630;7.484;2022-07-05T12:59:16;1.52;;;1.20;;
15192;SDS011;7697;51.630;7.484;2022-07-05T13:04:18;1.88;;;1.40;;
15192;SDS011;7697;51.630;7.484;2022-07-05T13:09:29;2.25;;;1.20;;
15192;SDS011;7697;51.630;7.484;2022-07-05T13:14:34;1.23;;;0.93;;
15192;SDS011;7697;51.630;7.484;2022-07-05T13:19:37;1.48;;;1.30;;
15192;SDS011;7697;51.630;7.484;2022-07-05T13:24:40;1.95;;;1.23;;
15192;SDS011;7697;51.630;7.484;2022-07-05T13:29:44;1.67;;;1.33;;
15192;SDS011;7697;51.630;7.484;2022-07-05T13:34:46;2.67;;;1.10;;
15192;SDS011;7697;51.630;7.484;2022-07-05T13:39:48;1.85;;;1.10;;
15192;SDS011;7697;51.630;7.484;2022-07-05T13:44:51;2.25;;;1.30;;
15192;SDS011;7697;51.630;7.484;2022-07-05T13:49:53;1.52;;;1.20;;
15192;SDS011;7697;51.630;7.484;2022-07-05T13:55:15;1.75;;;1.20;;
15192;SDS011;7697;51.630;7.484;2022-07-05T14:00:18;1.67;;;1.20;;
15192;SDS011;7697;51.630;7.484;2022-07-05T14:05:20;1.30;;;1.00;;
15192;SDS011;7697;51.630;7.484;2022-07-05T14:10:22;2.40;;;1.25;;
15192;SDS011;7697;51.630;7.484;2022-07-05T14:15:25;1.50;;;1.15;;
15192;SDS011;7697;51.630;7.484;2022-07-05T14:20:27;1.30;;;1.20;;
15192;SDS011;7697;51.630;7.484;2022-07-05T14:25:30;1.73;;;1.30;;
15192;SDS011;7697;51.630;7.484;2022-07-05T14:30:33;1.83;;;1.25;;
15192;SDS011;7697;51.630;7.484;2022-07-05T14:35:35;1.70;;;1.27;;
15192;SDS011;7697;51.630;7.484;2022-07-05T14:40:37;1.70;;;1.40;;
15192;SDS011;7697;51.630;7.484;2022-07-05T14:45:40;1.40;;;1.20;;
15192;SDS011;7697;51.630;7.484;2022-07-05T14:50:42;2.03;;;1.25;;
15192;SDS011;7697;51.630;7.484;2022-07-05T14:55:47;1.33;;;1.23;;
15192;SDS011;7697;51.630;7.484;2022-07-05T15:00:51;1.30;;;1.20;;
15192;SDS011;7697;51.630;7.484;2022-07-05T15:05:52;2.40;;;1.60;;
15192;SDS011;7697;51.630;7.484;2022-07-05T15:10:55;1.30;;;1.20;;
15192;SDS011;7697;51.630;7.484;2022-07-05T15:15:58;3.80;;;1.75;;
15192;SDS011;7697;51.630;7.484;2022-07-05T15:21:00;1.58;;;1.30;;
15192;SDS011;7697;51.630;7.484;2022-07-05T15:26:04;3.10;;;2.30;;
15192;SDS011;7697;51.630;7.484;2022-07-05T15:31:07;2.60;;;2.40;;
15192;SDS011;7697;51.630;7.484;2022-07-05T15:36:09;2.97;;;2.70;;
15192;SDS011;7697;51.630;7.484;2022-07-05T15:41:10;5.00;;;2.00;;
15192;SDS011;7697;51.630;7.484;2022-07-05T15:46:13;2.63;;;1.63;;
15192;SDS011;7697;51.630;7.484;2022-07-05T15:51:16;3.33;;;1.65;;
15192;SDS011;7697;51.630;7.484;2022-07-05T15:56:17;2.67;;;1.60;;
15192;SDS011;7697;51.630;7.484;2022-07-05T16:01:20;2.80;;;1.60;;
15192;SDS011;7697;51.630;7.484;2022-07-05T16:06:22;2.70;;;1.35;;
15192;SDS011;7697;51.630;7.484;2022-07-05T16:11:24;3.17;;;1.83;;
15192;SDS011;7697;51.630;7.484;2022-07-05T16:16:27;3.20;;;1.65;;
15192;SDS011;7697;51.630;7.484;2022-07-05T16:21:29;2.35;;;1.80;;
15192;SDS011;7697;51.630;7.484;2022-07-05T16:26:31;1.65;;;1.55;;
15192;SDS011;7697;51.630;7.484;2022-07-05T16:31:34;3.13;;;1.80;;
15192;SDS011;7697;51.630;7.484;2022-07-05T16:36:37;2.00;;;1.73;;
15192;SDS011;7697;51.630;7.484;2022-07-05T16:41:39;2.42;;;1.42;;
15192;SDS011;7697;51.630;7.484;2022-07-05T16:46:42;2.55;;;1.75;;
15192;SDS011;7697;51.630;7.484;2022-07-05T16:51:44;2.47;;;1.50;;
15192;SDS011;7697;51.630;7.484;2022-07-05T16:56:46;1.80;;;1.60;;
15192;SDS011;7697;51.630;7.484;2022-07-05T17:01:49;4.72;;;1.70;;
15192;SDS011;7697;51.630;7.484;2022-07-05T17:06:51;1.40;;;1.30;;
15192;SDS011;7697;51.630;7.484;2022-07-05T17:11:53;3.45;;;1.90;;
15192;SDS011;7697;51.630;7.484;2022-07-05T17:16:56;2.13;;;1.35;;
15192;SDS011;7697;51.630;7.484;2022-07-05T17:21:58;2.45;;;1.40;;
15192;SDS011;7697;51.630;7.484;2022-07-05T17:27:00;3.13;;;1.40;;
15192;SDS011;7697;51.630;7.484;2022-07-05T17:32:03;3.08;;;1.40;;
15192;SDS011;7697;51.630;7.484;2022-07-05T17:37:05;3.72;;;1.42;;
15192;SDS011;7697;51.630;7.484;2022-07-05T17:42:07;2.38;;;1.60;;
15192;SDS011;7697;51.630;7.484;2022-07-05T17:47:11;3.38;;;1.30;;
15192;SDS011;7697;51.630;7.484;2022-07-05T17:52:13;2.20;;;1.50;;
15192;SDS011;7697;51.630;7.484;2022-07-05T17:57:17;3.38;;;1.58;;
15192;SDS011;7697;51.630;7.484;2022-07-05T18:02:20;3.15;;;1.40;;
15192;SDS011;7697;51.630;7.484;2022-07-05T18:07:22;3.38;;;1.58;;
15192;SDS011;7697;51.630;7.484;2022-07-05T18:12:24;4.85;;;1.70;;
15192;SDS011;7697;51.630;7.484;2022-07-05T18:17:28;3.30;;;1.40;;
15192;SDS011;7697;51.630;7.484;2022-07-05T18:22:29;1.48;;;1.05;;
15192;SDS011;7697;51.630;7.484;2022-07-05T18:27:31;1.98;;;1.20;;
15192;SDS011;7697;51.630;7.484;2022-07-05T18:32:34;1.63;;;1.20;;
15192;SDS011;7697;51.630;7.484;2022-07-05T18:37:37;3.17;;;1.15;;
15192;SDS011;7697;51.630;7.484;2022-07-05T18:42:39;2.30;;;1.10;;
15192;SDS011;7697;51.630;7.484;2022-07-05T18:47:42;1.20;;;1.10;;
15192;SDS011;7697;51.630;7.484;2022-07-05T18:52:44;3.92;;;1.10;;
15192;SDS011;7697;51.630;7.484;2022-07-05T18:57:46;1.70;;;1.13;;
15192;SDS011;7697;51.630;7.484;2022-07-05T19:02:51;1.42;;;1.10;;
15192;SDS011;7697;51.630;7.484;2022-07-05T19:07:53;1.40;;;0.93;;
15192;SDS011;7697;51.630;7.484;2022-07-05T19:13:24;1.70;;;1.00;;
15192;SDS011;7697;51.630;7.484;2022-07-05T19:18:48;2.05;;;1.02;;
15192;SDS011;7697;51.630;7.484;2022-07-05T19:23:50;1.10;;;0.90;;
15192;SDS011;7697;51.630;7.484;2022-07-05T19:28:51;2.17;;;1.00;;
15192;SDS011;7697;51.630;7.484;2022-07-05T19:33:54;1.20;;;0.77;;
15192;SDS011;7697;51.630;7.484;2022-07-05T19:38:56;1.27;;;0.90;;
15192;SDS011;7697;51.630;7.484;2022-07-05T19:43:58;1.38;;;0.95;;
15192;SDS011;7697;51.630;7.484;2022-07-05T19:49:01;1.73;;;0.95;;
15192;SDS011;7697;51.630;7.484;2022-07-05T19:54:03;1.45;;;1.10;;
15192;SDS011;7697;51.630;7.484;2022-07-05T19:59:07;1.10;;;1.00;;
15192;SDS011;7697;51.630;7.484;2022-07-05T20:04:10;1.60;;;1.08;;
15192;SDS011;7697;51.630;7.484;2022-07-05T20:09:12;1.98;;;1.25;;
15192;SDS011;7697;51.630;7.484;2022-07-05T20:14:14;1.98;;;0.90;;
15192;SDS011;7697;51.630;7.484;2022-07-05T20:19:18;1.10;;;0.85;;
15192;SDS011;7697;51.630;7.484;2022-07-05T20:24:20;2.67;;;1.20;;
15192;SDS011;7697;51.630;7.484;2022-07-05T20:29:22;1.60;;;1.20;;
15192;SDS011;7697;51.630;7.484;2022-07-05T20:34:28;1.90;;;1.15;;
15192;SDS011;7697;51.630;7.484;2022-07-05T20:39:30;4.43;;;1.30;;
15192;SDS011;7697;51.630;7.484;2022-07-05T20:44:32;3.85;;;1.48;;
15192;SDS011;7697;51.630;7.484;2022-07-05T20:49:35;1.67;;;1.30;;
15192;SDS011;7697;51.630;7.484;2022-07-05T20:54:37;1.48;;;1.20;;
15192;SDS011;7697;51.630;7.484;2022-07-05T20:59:39;2.15;;;1.40;;
15192;SDS011;7697;51.630;7.484;2022-07-05T21:04:42;2.67;;;1.20;;
15192;SDS011;7697;51.630;7.484;2022-07-05T21:09:44;1.48;;;1.00;;
15192;SDS011;7697;51.630;7.484;2022-07-05T21:14:46;1.40;;;1.10;;
15192;SDS011;7697;51.630;7.484;2022-07-05T21:19:49;1.40;;;1.10;;
15192;SDS011;7697;51.630;7.484;2022-07-05T21:24:51;1.48;;;1.15;;
15192;SDS011;7697;51.630;7.484;2022-07-05T21:29:53;2.60;;;1.30;;
15192;SDS011;7697;51.630;7.484;2022-07-05T21:34:56;2.38;;;1.42;;
15192;SDS011;7697;51.630;7.484;2022-07-05T21:39:58;1.92;;;1.10;;
15192;SDS011;7697;51.630;7.484;2022-07-05T21:44:59;2.78;;;1.23;;
15192;SDS011;7697;51.630;7.484;2022-07-05T21:50:03;1.38;;;1.17;;
15192;SDS011;7697;51.630;7.484;2022-07-05T21:55:05;1.10;;;1.00;;
15192;SDS011;7697;51.630;7.484;2022-07-05T22:00:16;1.23;;;0.98;;
15192;SDS011;7697;51.630;7.484;2022-07-05T22:05:38;2.20;;;1.30;;
15192;SDS011;7697;51.630;7.484;2022-07-05T22:10:40;1.13;;;1.00;;
15192;SDS011;7697;51.630;7.484;2022-07-05T22:15:42;1.23;;;0.93;;
15192;SDS011;7697;51.630;7.484;2022-07-05T22:20:45;1.45;;;1.17;;
15192;SDS011;7697;51.630;7.484;2022-07-05T22:25:48;1.55;;;1.13;;
15192;SDS011;7697;51.630;7.484;2022-07-05T22:30:49;2.60;;;1.42;;
15192;SDS011;7697;51.630;7.484;2022-07-05T22:35:52;1.25;;;1.10;;
15192;SDS011;7697;51.630;7.484;2022-07-05T22:40:56;2.10;;;1.25;;
15192;SDS011;7697;51.630;7.484;2022-07-05T22:45:58;1.80;;;1.20;;
15192;SDS011;7697;51.630;7.484;2022-07-05T22:51:01;1.83;;;1.17;;
15192;SDS011;7697;51.630;7.484;2022-07-05T22:56:03;1.20;;;1.00;;
15192;SDS011;7697;51.630;7.484;2022-07-05T23:01:05;3.35;;;1.20;;
15192;SDS011;7697;51.630;7.484;2022-07-05T23:06:08;1.48;;;1.13;;
15192;SDS011;7697;51.630;7.484;2022-07-05T23:11:11;1.58;;;1.00;;
15192;SDS011;7697;51.630;7.484;2022-07-05T23:16:13;1.38;;;0.95;;
15192;SDS011;7697;51.630;7.484;2022-07-05T23:21:16;2.03;;;1.20;;
15192;SDS011;7697;51.630;7.484;2022-07-05T23:26:18;2.30;;;1.40;;
15192;SDS011;7697;51.630;7.484;2022-07-05T23:31:19;1.63;;;1.17;;
15192;SDS011;7697;51.630;7.484;2022-07-05T23:36:22;2.50;;;1.15;;
15192;SDS011;7697;51.630;7.484;2022-07-05T23:41:24;2.53;;;1.10;;
15192;SDS011;7697;51.630;7.484;2022-07-05T23:46:26;1.50;;;1.10;;
15192;SDS011;7697;51.630;7.484;2022-07-05T23:51:29;1.85;;;1.10;;
15192;SDS011;7697;51.630;7.484;2022-07-05T23:56:31;1.50;;;1.00;;
